Time;durP1;ratioP1;P1;durP2;ratioP2;P2;SDS_P1;SDS_P2;PMS_P1;PMS_P2;Temp;Humidity;BMP_temperature;BMP_pressure;BME280_temperature;BME280_humidity;BME280_pressure;Samples;Min_cycle;Max_cycle;Signal;HPM_P1;HPM_P2
2022/05/17 00:01:11;;;;;;;;;8.50;7.25;;;;;23.15;46.75;101140.31;5094333;27;45510;-64
2022/05/17 00:03:38;;;;;;;;;7.25;7.25;;;;;23.13;46.78;101144.97;5074455;28;45575;-64
2022/05/17 00:06:05;;;;;;;;;7.25;6.25;;;;;23.08;47.13;101135.59;5080239;27;45545;-64
2022/05/17 00:08:33;;;;;;;;;8.25;7.75;;;;;23.10;47.04;101137.13;5090754;27;45508;-66
2022/05/17 00:11:01;;;;;;;;;9.00;7.50;;;;;23.04;47.33;101134.09;5087879;27;46123;-65
2022/05/17 00:13:26;;;;;;;;;6.75;6.75;;;;;23.05;47.42;101142.03;5091476;27;46121;-65
2022/05/17 00:15:52;;;;;;;;;8.25;7.00;;;;;23.01;47.17;101120.94;5091808;27;45511;-64
2022/05/17 00:18:19;;;;;;;;;7.75;7.75;;;;;23.03;47.33;101132.41;5094646;27;45608;-66
2022/05/17 00:20:45;;;;;;;;;8.00;8.00;;;;;23.00;47.52;101133.50;5094720;27;45507;-66
2022/05/17 00:23:14;;;;;;;;;58.67;47.00;;;;;22.97;48.17;101127.50;5094201;27;46084;-67
2022/05/17 00:25:39;;;;;;;;;13.33;10.33;;;;;22.96;47.92;101131.16;5093068;27;45410;-64
2022/05/17 00:28:05;;;;;;;;;8.25;8.25;;;;;22.92;47.93;101126.03;5091705;27;45503;-65
2022/05/17 00:30:31;;;;;;;;;7.25;7.25;;;;;22.92;48.39;101126.03;5074081;27;45445;-65
2022/05/17 00:32:57;;;;;;;;;6.75;6.75;;;;;22.87;48.32;101114.81;5085124;27;46421;-65
2022/05/17 00:35:24;;;;;;;;;6.00;6.00;;;;;22.88;48.42;101123.69;5079181;27;45544;-65
2022/05/17 00:37:50;;;;;;;;;7.50;6.75;;;;;22.86;48.34;101120.28;5074234;27;45425;-66
2022/05/17 00:40:17;;;;;;;;;8.00;7.00;;;;;22.80;48.49;101110.03;5055758;28;45457;-66
2022/05/17 00:42:42;;;;;;;;;12.25;8.50;;;;;22.83;48.37;101120.53;5074779;27;46210;-66
2022/05/17 00:45:09;;;;;;;;;7.75;7.75;;;;;22.82;48.82;101118.81;5078250;27;45778;-65
2022/05/17 00:47:56;;;;;;;;;9.50;9.50;;;;;22.78;48.89;101117.34;5076805;27;45591;-65
2022/05/17 00:50:39;;;;;;;;;6.50;6.50;;;;;22.75;49.16;101114.91;5073998;27;45595;-66
2022/05/17 00:53:13;;;;;;;;;8.25;8.25;;;;;22.72;49.73;101119.53;5073778;27;45525;-66
2022/05/17 00:55:51;;;;;;;;;7.00;7.00;;;;;22.70;49.33;101115.25;5073622;27;45536;-66
2022/05/17 00:58:25;;;;;;;;;8.00;8.00;;;;;22.65;49.01;101104.91;5084110;27;45569;-65
2022/05/17 01:00:55;;;;;;;;;6.50;6.00;;;;;22.68;49.24;101111.88;5093958;27;45461;-66
2022/05/17 01:03:23;;;;;;;;;7.75;6.75;;;;;22.67;49.19;101107.47;5093880;27;45559;-66
2022/05/17 01:05:53;;;;;;;;;7.00;6.50;;;;;22.61;50.06;101114.16;5093186;27;45573;-65
2022/05/17 01:08:20;;;;;;;;;6.00;6.00;;;;;22.60;49.67;101109.78;5094288;27;45436;-66
2022/05/17 01:10:46;;;;;;;;;6.00;6.00;;;;;22.59;50.01;101108.06;5082071;27;45473;-66
2022/05/17 01:15:57;;;;;;;;;7.25;6.50;;;;;22.44;50.66;101104.75;5082636;27;45504;-65
2022/05/17 01:18:23;;;;;;;;;6.25;6.25;;;;;22.47;50.77;101104.50;5093783;27;45470;-64
2022/05/17 01:20:49;;;;;;;;;6.75;6.50;;;;;22.45;50.63;101097.56;5093638;27;45598;-64
2022/05/17 01:23:16;;;;;;;;;6.75;5.75;;;;;22.42;50.06;101105.84;5091670;27;46703;-65
2022/05/17 01:25:44;;;;;;;;;5.50;5.50;;;;;22.33;51.10;101103.88;5087472;27;45494;-65
2022/05/17 01:28:22;;;;;;;;;4.50;4.25;;;;;22.32;51.33;101104.84;5082047;27;45496;-64
2022/05/17 01:30:48;;;;;;;;;6.25;6.25;;;;;22.21;51.95;101103.81;5079220;27;45509;-66
2022/05/17 01:33:16;;;;;;;;;8.00;8.00;;;;;22.24;51.34;101106.25;5081444;27;45573;-65
2022/05/17 01:35:42;;;;;;;;;7.75;7.75;;;;;22.25;51.32;101105.31;5081460;27;45575;-65
2022/05/17 01:38:07;;;;;;;;;10.00;7.50;;;;;22.23;51.00;101101.88;5091132;27;45526;-65
2022/05/17 01:40:34;;;;;;;;;5.00;4.00;;;;;22.23;50.96;101096.53;5077853;27;45469;-65
2022/05/17 01:43:00;;;;;;;;;6.75;6.75;;;;;22.22;51.30;101097.50;5083664;27;45453;-65
2022/05/17 01:45:25;;;;;;;;;6.25;6.25;;;;;22.23;51.17;101103.72;5082646;27;45885;-65
2022/05/17 01:47:50;;;;;;;;;5.25;5.25;;;;;22.20;51.48;101098.59;5079534;27;45582;-65
2022/05/17 01:50:16;;;;;;;;;6.00;6.00;;;;;22.16;51.53;101105.97;5092704;27;45572;-64
2022/05/17 01:52:42;;;;;;;;;6.00;6.00;;;;;22.08;51.84;101102.16;5082200;27;48197;-65
2022/05/17 01:55:07;;;;;;;;;7.00;7.00;;;;;22.06;51.69;101099.63;5072811;27;45503;-65
2022/05/17 01:57:33;;;;;;;;;7.00;7.00;;;;;21.98;51.54;101091.31;5072800;27;45515;-65
2022/05/17 01:59:58;;;;;;;;;5.75;5.75;;;;;21.98;51.69;101097.50;5072957;27;45504;-65
2022/05/17 02:02:23;;;;;;;;;5.00;5.00;;;;;21.99;51.48;101101.03;5078699;27;45423;-65
2022/05/17 02:04:49;;;;;;;;;6.67;6.00;;;;;21.95;51.64;101104.91;5082085;27;45464;-66
2022/05/17 02:07:14;;;;;;;;;5.00;5.00;;;;;21.93;51.08;101122.94;5092492;27;45480;-65
2022/05/17 02:09:39;;;;;;;;;5.00;5.00;;;;;21.97;51.07;101113.69;5091835;27;45522;-66
2022/05/17 02:12:05;;;;;;;;;6.00;6.00;;;;;21.98;51.00;101112.75;5092074;27;46269;-65
2022/05/17 02:14:31;;;;;;;;;4.00;4.00;;;;;21.94;50.96;101119.28;5092785;27;45532;-67
2022/05/17 02:16:59;;;;;;;;;5.00;5.00;;;;;21.90;50.91;101113.31;5094791;27;45433;-65
2022/05/17 02:19:26;;;;;;;;;5.50;5.50;;;;;21.84;50.87;101117.31;5096546;27;45453;-66
2022/05/17 02:21:52;;;;;;;;;4.00;3.50;;;;;21.88;50.96;101101.84;5096066;27;46142;-65
2022/05/17 02:24:17;;;;;;;;;5.25;5.25;;;;;21.83;50.78;101112.03;5091733;27;45468;-66
2022/05/17 02:26:43;;;;;;;;;7.00;7.00;;;;;21.85;50.50;101128.88;5096054;27;46764;-66
2022/05/17 02:29:09;;;;;;;;;6.50;5.25;;;;;21.92;50.22;101129.25;5085687;27;45508;-65
2022/05/17 02:31:34;;;;;;;;;4.00;4.00;;;;;21.95;49.77;101115.63;5086151;27;46836;-64
2022/05/17 02:34:00;;;;;;;;;6.00;6.00;;;;;21.95;49.58;101115.63;5096515;27;45465;-66
2022/05/17 02:36:25;;;;;;;;;6.50;4.00;;;;;22.01;49.61;101126.75;5093674;27;45491;-65
2022/05/17 02:38:50;;;;;;;;;7.00;5.25;;;;;22.05;49.35;101120.16;5094953;27;45500;-66
2022/05/17 02:41:19;;;;;;;;;5.50;5.25;;;;;22.09;49.20;101118.13;5093931;27;46021;-66
2022/05/17 02:43:46;;;;;;;;;4.50;4.50;;;;;22.04;49.45;101122.97;5084126;27;45429;-65
2022/05/17 02:46:11;;;;;;;;;4.00;4.00;;;;;22.01;49.26;101129.41;5093523;27;45575;-66
2022/05/17 02:48:37;;;;;;;;;5.00;4.75;;;;;22.05;49.05;101119.31;5089751;27;45564;-66
2022/05/17 02:51:13;;;;;;;;;3.00;3.00;;;;;22.06;49.29;101121.06;5090443;27;47112;-63
2022/05/17 02:53:38;;;;;;;;;4.50;4.00;;;;;22.03;48.92;101115.91;5089197;27;45537;-66
2022/05/17 02:56:04;;;;;;;;;3.00;3.00;;;;;22.05;49.13;101128.22;5094320;27;45502;-65
2022/05/17 02:58:30;;;;;;;;;4.00;3.00;;;;;22.09;49.22;101126.16;5094849;27;45587;-65
2022/05/17 03:00:55;;;;;;;;;5.25;5.25;;;;;22.10;48.85;101114.47;5088111;27;46728;-66
2022/05/17 03:03:21;;;;;;;;;5.00;5.00;;;;;22.16;48.87;101123.88;5082673;27;45561;-66
2022/05/17 03:05:46;;;;;;;;;5.75;4.50;;;;;22.16;49.21;101115.84;5076188;27;45742;-66
2022/05/17 03:08:15;;;;;;;;;7.00;5.50;;;;;22.15;49.14;101109.63;5094440;27;45629;-65
2022/05/17 03:10:40;;;;;;;;;6.00;6.00;;;;;22.20;49.25;101112.00;5075160;27;45453;-65
2022/05/17 03:13:09;;;;;;;;;4.75;4.75;;;;;22.19;49.68;101115.63;5075812;27;45497;-65
2022/05/17 03:15:35;;;;;;;;;6.67;5.67;;;;;22.13;50.01;101103.53;5080500;27;45566;-65
2022/05/17 03:18:00;;;;;;;;;7.25;7.25;;;;;22.15;50.12;101106.94;5095380;27;45541;-67
2022/05/17 03:20:26;;;;;;;;;5.25;5.25;;;;;22.11;49.90;101105.50;5075770;27;46188;-66
2022/05/17 03:22:51;;;;;;;;;5.00;5.00;;;;;22.08;49.94;101113.72;5075761;27;45548;-67
2022/05/17 03:25:20;;;;;;;;;5.00;5.00;;;;;22.02;49.96;101112.38;5076215;28;45432;-68
2022/05/17 03:27:45;;;;;;;;;7.00;7.00;;;;;22.02;50.08;101120.41;5073811;27;45512;-67
2022/05/17 03:30:11;;;;;;;;;8.25;6.50;;;;;21.99;50.22;101117.13;5095995;27;45531;-66
2022/05/17 03:32:37;;;;;;;;;5.75;5.75;;;;;21.95;50.14;101107.59;5080932;27;45470;-65
2022/05/17 03:35:03;;;;;;;;;5.33;5.33;;;;;21.91;50.10;101106.97;5091717;27;45643;-66
2022/05/17 03:37:28;;;;;;;;;7.50;7.50;;;;;21.87;49.98;101107.31;5096085;27;45416;-65
2022/05/17 03:39:53;;;;;;;;;7.00;7.00;;;;;21.87;50.08;101107.31;5078189;27;46115;-65
2022/05/17 03:42:19;;;;;;;;;5.00;5.00;;;;;21.87;50.22;101104.63;5075465;28;45579;-66
2022/05/17 03:44:45;;;;;;;;;5.25;4.75;;;;;21.84;50.31;101101.25;5075730;28;46097;-67
2022/05/17 03:47:10;;;;;;;;;4.75;4.75;;;;;21.79;50.23;101097.19;5075560;28;45576;-65
2022/05/17 03:49:37;;;;;;;;;5.67;5.33;;;;;21.82;50.47;101105.00;5078536;27;46041;-67
2022/05/17 03:52:03;;;;;;;;;6.00;6.00;;;;;21.85;50.46;101115.47;5076141;27;45493;-66
2022/05/17 03:54:28;;;;;;;;;6.00;6.00;;;;;21.84;50.44;101111.06;5075540;27;45567;-66
2022/05/17 03:56:54;;;;;;;;;6.00;6.00;;;;;21.84;50.40;101119.09;5095484;27;45611;-67
2022/05/17 03:59:20;;;;;;;;;5.50;5.50;;;;;21.86;50.23;101119.00;5088384;27;45967;-66
2022/05/17 04:01:45;;;;;;;;;9.67;8.00;;;;;21.85;50.46;101120.84;5082531;27;45600;-65
2022/05/17 04:04:12;;;;;;;;;5.67;5.67;;;;;21.82;50.55;101118.38;5095023;27;45527;-66
2022/05/17 04:06:37;;;;;;;;;5.00;5.00;;;;;21.82;50.44;101132.63;5080338;27;45566;-65
2022/05/17 04:09:04;;;;;;;;;6.67;6.67;;;;;21.80;50.98;101123.84;5078532;27;45511;-66
2022/05/17 04:11:29;;;;;;;;;7.67;7.67;;;;;21.79;50.75;101124.81;5095332;27;45480;-65
2022/05/17 04:13:54;;;;;;;;;9.75;7.00;;;;;21.78;50.92;101120.41;5095659;27;45334;-66
2022/05/17 04:16:20;;;;;;;;;9.00;9.00;;;;;21.75;51.15;101115.28;5094959;27;45592;-65
2022/05/17 04:18:46;;;;;;;;;6.00;6.00;;;;;21.73;51.25;101117.22;5088172;27;45512;-66
2022/05/17 04:21:12;;;;;;;;;7.00;7.00;;;;;21.73;51.29;101125.25;5073885;28;45776;-65
2022/05/17 04:23:38;;;;;;;;;8.00;6.33;;;;;21.73;51.38;101116.38;5088842;27;45434;-66
2022/05/17 04:26:04;;;;;;;;;6.33;6.33;;;;;21.74;51.51;101124.31;5095109;27;45614;-66
2022/05/17 04:28:30;;;;;;;;;8.00;7.00;;;;;21.72;51.76;101120.88;5094419;27;45523;-66
2022/05/17 04:30:56;;;;;;;;;9.67;8.33;;;;;21.74;51.56;101124.31;5094458;27;45476;-66
2022/05/17 04:33:22;;;;;;;;;7.33;7.33;;;;;21.72;51.74;101125.38;5094753;27;45468;-66
2022/05/17 04:35:47;;;;;;;;;9.00;7.00;;;;;21.74;51.86;101128.81;5095208;27;45672;-65
2022/05/17 04:38:13;;;;;;;;;8.33;8.33;;;;;21.73;51.76;101130.59;5093299;27;45919;-65
2022/05/17 04:40:41;;;;;;;;;9.33;8.00;;;;;21.74;51.65;101131.47;5089750;27;45413;-66
2022/05/17 04:43:07;;;;;;;;;8.25;8.25;;;;;21.70;52.10;101136.19;5094866;27;45762;-66
2022/05/17 04:45:32;;;;;;;;;7.67;7.67;;;;;21.72;51.87;101136.09;5094790;27;45459;-66
2022/05/17 04:47:58;;;;;;;;;9.33;9.33;;;;;21.70;52.03;101133.50;5094569;27;45548;-68
2022/05/17 04:50:23;;;;;;;;;8.33;8.33;;;;;21.68;52.05;101138.16;5075115;27;45469;-69
2022/05/17 04:52:48;;;;;;;;;6.00;6.00;;;;;21.68;52.11;101142.63;5074383;28;45600;-65
2022/05/17 04:55:16;;;;;;;;;10.00;10.00;;;;;21.69;51.94;101144.34;5081986;27;45691;-66
2022/05/17 04:57:42;;;;;;;;;11.00;10.00;;;;;21.69;51.99;101139.84;5092439;27;46140;-66
2022/05/17 05:00:11;;;;;;;;;7.67;7.67;;;;;21.69;52.44;101137.16;5094586;27;45479;-65
2022/05/17 05:02:37;;;;;;;;;9.00;9.00;;;;;21.71;52.28;101145.94;5094720;27;45872;-65
2022/05/17 05:05:04;;;;;;;;;6.50;6.50;;;;;21.70;52.10;101146.91;5093793;27;45540;-65
2022/05/17 05:07:29;;;;;;;;;7.00;7.00;;;;;21.71;52.30;101145.94;5094414;27;45507;-67
2022/05/17 05:09:55;;;;;;;;;10.33;9.33;;;;;21.69;51.89;101150.56;5074879;27;45539;-66
2022/05/17 05:12:20;;;;;;;;;7.33;7.33;;;;;21.70;52.18;101149.56;5074031;28;45405;-66
2022/05/17 05:14:45;;;;;;;;;8.67;8.67;;;;;21.71;52.04;101153.97;5090604;27;45548;-66
2022/05/17 05:17:11;;;;;;;;;8.00;8.00;;;;;21.67;51.98;101152.47;5094262;27;45893;-66
2022/05/17 05:19:36;;;;;;;;;10.00;10.00;;;;;21.69;52.07;101163.09;5082165;27;45533;-66
2022/05/17 05:22:02;;;;;;;;;9.67;8.00;;;;;21.71;51.96;101162.00;5072532;28;45620;-66
2022/05/17 05:24:27;;;;;;;;;9.00;9.00;;;;;21.69;52.04;101163.09;5073736;28;45605;-66
2022/05/17 05:26:53;;;;;;;;;8.67;8.67;;;;;21.71;52.17;101170.06;5073597;28;46451;-65
2022/05/17 05:29:18;;;;;;;;;7.00;7.00;;;;;21.72;51.34;101169.06;5077846;27;45595;-66
2022/05/17 05:31:44;;;;;;;;;8.00;8.00;;;;;21.74;51.78;101163.63;5073969;27;45494;-65
2022/05/17 05:34:10;;;;;;;;;6.67;6.67;;;;;21.75;51.89;101170.66;5080525;27;45550;-66
2022/05/17 05:36:36;;;;;;;;;9.67;9.67;;;;;21.70;51.88;101160.28;5093647;27;45555;-65
2022/05/17 05:39:01;;;;;;;;;9.67;8.67;;;;;21.76;51.84;101161.66;5092205;27;45494;-65
2022/05/17 05:41:26;;;;;;;;;11.00;9.00;;;;;21.74;52.19;101167.16;5093952;27;45736;-66
2022/05/17 05:43:52;;;;;;;;;10.00;10.00;;;;;21.75;51.83;101171.53;5093831;27;45626;-65
2022/05/17 05:46:17;;;;;;;;;11.00;11.00;;;;;21.76;51.95;101175.03;5094011;27;45829;-66
2022/05/17 05:48:43;;;;;;;;;9.33;9.33;;;;;21.69;52.24;101177.34;5086977;27;45554;-65
2022/05/17 05:51:08;;;;;;;;;9.00;7.33;;;;;21.69;52.19;101181.84;5091190;27;45444;-67
2022/05/17 05:53:34;;;;;;;;;9.67;9.67;;;;;21.68;52.12;101180.09;5093576;27;45587;-67
2022/05/17 05:56:02;;;;;;;;;11.33;10.00;;;;;21.67;52.43;101184.59;5076971;27;46324;-66
2022/05/17 05:58:33;;;;;;;;;10.33;10.33;;;;;21.70;52.30;101184.38;5084064;27;45423;-67
2022/05/17 06:00:58;;;;;;;;;10.33;10.33;;;;;21.69;52.20;101180.00;5089208;27;45563;-67
2022/05/17 06:03:25;;;;;;;;;11.00;11.00;;;;;21.75;52.19;101184.91;5082937;27;45563;-65
2022/05/17 06:05:50;;;;;;;;;9.00;9.00;;;;;21.77;52.32;101179.44;5080264;27;45507;-66
2022/05/17 06:08:16;;;;;;;;;10.33;10.00;;;;;21.79;52.37;101182.88;5077798;27;45465;-67
2022/05/17 06:10:42;;;;;;;;;11.67;9.00;;;;;21.83;52.49;101184.34;5077104;28;45481;-67
2022/05/17 06:13:09;;;;;;;;;11.33;10.00;;;;;21.87;52.15;101188.53;5077049;27;45586;-67
2022/05/17 06:15:35;;;;;;;;;11.00;9.33;;;;;21.88;51.69;101181.34;5076272;27;47378;-66
2022/05/17 06:18:01;;;;;;;;;10.00;8.67;;;;;21.92;51.98;101189.00;5075732;27;45380;-65
2022/05/17 06:20:26;;;;;;;;;12.00;9.33;;;;;21.93;51.61;101182.72;5097503;27;45599;-66
2022/05/17 06:22:52;;;;;;;;;10.33;10.33;;;;;22.00;51.70;101193.81;5079759;27;45627;-65
2022/05/17 06:25:17;;;;;;;;;12.00;9.33;;;;;22.01;51.74;101187.50;5077859;27;45406;-65
2022/05/17 06:27:43;;;;;;;;;12.67;12.67;;;;;22.04;51.89;101188.13;5076551;28;45473;-65
2022/05/17 06:30:10;;;;;;;;;12.33;11.67;;;;;22.05;51.83;101184.47;5076618;28;45460;-65
2022/05/17 06:32:35;;;;;;;;;11.33;10.33;;;;;22.08;51.95;101188.75;5076518;28;45453;-66
2022/05/17 06:35:00;;;;;;;;;14.33;13.33;;;;;22.09;51.81;101187.78;5091561;27;45448;-66
2022/05/17 06:37:26;;;;;;;;;10.33;10.33;;;;;22.14;51.65;101195.47;5096989;27;45580;-65
2022/05/17 06:39:51;;;;;;;;;9.33;9.33;;;;;22.13;51.75;101186.56;5079641;27;45759;-65
2022/05/17 06:42:17;;;;;;;;;13.50;12.00;;;;;22.14;51.33;101179.38;5076504;27;45384;-67
2022/05/17 06:44:42;;;;;;;;;13.00;12.33;;;;;22.18;51.24;101184.44;5088864;27;45566;-65
2022/05/17 06:47:08;;;;;;;;;15.67;15.00;;;;;22.23;51.08;101182.28;5096809;27;45454;-66
2022/05/17 06:49:39;;;;;;;;;15.33;13.00;;;;;22.28;50.68;101180.09;5085516;27;45464;-66
2022/05/17 06:52:06;;;;;;;;;13.00;13.00;;;;;22.35;50.73;101175.13;5089008;27;45509;-65
2022/05/17 06:54:32;;;;;;;;;9.33;9.33;;;;;22.40;49.86;101172.94;5096117;27;46064;-67
2022/05/17 06:57:02;;;;;;;;;12.25;9.00;;;;;22.45;49.72;101178.81;5088758;27;45503;-65
2022/05/17 06:59:30;;;;;;;;;22.00;19.33;;;;;22.52;49.60;101186.41;5082530;27;45472;-67
2022/05/17 07:01:55;;;;;;;;;17.33;14.33;;;;;22.58;49.33;101180.56;5088251;27;45647;-66
2022/05/17 07:04:21;;;;;;;;;13.00;11.00;;;;;22.62;49.00;101180.22;5083277;27;46255;-66
2022/05/17 07:06:47;;;;;;;;;11.67;11.67;;;;;22.69;48.88;101184.13;5086878;27;45568;-67
2022/05/17 07:09:12;;;;;;;;;42.33;36.33;;;;;22.75;48.91;101184.63;5096794;27;45463;-66
2022/05/17 07:14:22;;;;;;;;;6.00;6.00;;;;;22.79;47.63;101176.25;5075948;28;45699;-65
2022/05/17 07:16:47;;;;;;;;;9.50;9.00;;;;;22.83;47.75;101176.84;5087372;27;45590;-66
2022/05/17 07:19:12;;;;;;;;;9.25;8.00;;;;;22.85;47.12;101174.91;5080779;27;45531;-65
2022/05/17 07:21:38;;;;;;;;;7.50;7.00;;;;;22.88;46.72;101182.72;5086090;27;45609;-66
2022/05/17 07:24:03;;;;;;;;;7.00;7.00;;;;;22.88;46.08;101182.72;5078750;27;49835;-65
2022/05/17 07:26:28;;;;;;;;;7.75;5.75;;;;;22.86;45.02;101174.78;5075613;28;45429;-65
2022/05/17 07:28:54;;;;;;;;;4.25;3.00;;;;;22.87;45.32;101168.44;5075942;27;45420;-65
2022/05/17 07:31:19;;;;;;;;;6.50;5.75;;;;;22.90;45.29;101167.34;5089376;27;45639;-66
2022/05/17 07:33:44;;;;;;;;;6.75;6.00;;;;;22.91;44.91;101174.41;5074470;27;54909;-65
2022/05/17 07:36:12;;;;;;;;;7.00;6.00;;;;;22.90;44.71;101176.25;5074812;28;45556;-65
2022/05/17 07:38:38;;;;;;;;;5.25;5.25;;;;;22.92;44.33;101179.69;5075132;28;45465;-64
2022/05/17 07:41:04;;;;;;;;;5.00;5.00;;;;;22.97;44.03;101182.03;5078945;27;45660;-65
2022/05/17 07:43:30;;;;;;;;;4.50;4.50;;;;;23.01;44.41;101180.81;5095205;27;45520;-66
2022/05/17 07:45:55;;;;;;;;;7.00;6.00;;;;;23.05;44.36;101184.09;5092750;27;45578;-66
2022/05/17 07:48:23;;;;;;;;;7.50;6.50;;;;;23.06;44.53;101175.94;5093194;27;45449;-67
2022/05/17 07:50:50;;;;;;;;;5.75;5.75;;;;;23.10;44.83;101181.91;5076250;27;45478;-66
2022/05/17 07:53:18;;;;;;;;;5.25;4.75;;;;;23.12;43.99;101174.59;5075763;27;45642;-65
2022/05/17 07:55:45;;;;;;;;;6.25;6.25;;;;;23.14;43.02;101176.19;5074800;27;45438;-66
2022/05/17 07:58:11;;;;;;;;;5.00;4.25;;;;;23.14;43.48;101176.19;5075164;27;45699;-67
2022/05/17 08:00:38;;;;;;;;;6.25;6.25;;;;;23.18;42.89;101179.47;5079450;27;45514;-68
2022/05/17 08:03:05;;;;;;;;;3.25;3.25;;;;;23.18;42.13;101182.16;5093256;27;46224;-66
2022/05/17 08:05:31;;;;;;;;;4.00;4.00;;;;;23.22;39.19;101180.09;5075015;27;45480;-66
2022/05/17 08:07:57;;;;;;;;;4.25;4.25;;;;;23.24;40.16;101172.75;5079530;27;45449;-66
2022/05/17 08:10:23;;;;;;;;;4.00;4.00;;;;;23.28;40.10;101179.59;5095267;27;45585;-65
2022/05/17 08:12:49;;;;;;;;;3.00;3.00;;;;;23.28;39.70;101172.41;5095220;27;45502;-65
2022/05/17 08:15:15;;;;;;;;;6.25;5.75;;;;;23.35;40.57;101184.38;5094140;27;45494;-66
2022/05/17 08:17:40;;;;;;;;;5.25;4.25;;;;;23.39;40.81;101182.28;5094391;27;45469;-65
2022/05/17 08:20:09;;;;;;;;;5.25;5.25;;;;;23.43;40.66;101180.19;5092786;27;45607;-66
2022/05/17 08:22:38;;;;;;;;;4.50;4.50;;;;;23.41;40.70;101174.13;5079933;27;45488;-66
2022/05/17 08:27:48;;;;;;;;;7.00;4.00;;;;;23.47;40.59;101179.81;5090801;27;45600;-65
2022/05/17 08:30:17;;;;;;;;;5.50;4.25;;;;;23.51;40.34;101175.94;5093388;27;45411;-65
2022/05/17 08:35:57;;;;;;;;;4.00;4.00;;;;;23.56;40.05;101179.09;5074503;28;45549;-65
2022/05/17 08:38:30;;;;;;;;;3.50;3.50;;;;;23.59;39.45;101183.38;5087499;27;45445;-66
2022/05/17 08:40:55;;;;;;;;;4.00;4.00;;;;;23.61;39.12;101178.72;5090178;27;45511;-66
2022/05/17 08:43:20;;;;;;;;;4.25;4.25;;;;;23.55;38.53;101169.31;5074226;27;45649;-67
2022/05/17 08:45:54;;;;;;;;;4.25;4.00;;;;;23.66;39.00;101175.66;5073997;27;45455;-65
2022/05/17 08:48:21;;;;;;;;;5.00;5.00;;;;;23.68;37.91;101171.88;5074565;28;45468;-66
2022/05/17 08:50:49;;;;;;;;;5.50;5.50;;;;;23.70;38.67;101166.38;5077220;27;45592;-67
2022/05/17 08:53:18;;;;;;;;;6.00;6.00;;;;;23.73;37.85;101169.69;5094359;27;45471;-65
2022/05/17 08:55:46;;;;;;;;;4.25;4.25;;;;;23.79;37.82;101165.66;5090224;27;45507;-65
2022/05/17 08:58:13;;;;;;;;;4.00;4.00;;;;;23.83;36.36;101169.81;5094688;27;45439;-66
2022/05/17 09:00:45;;;;;;;;;5.25;5.25;;;;;23.86;36.21;101163.31;5090622;27;45554;-66
2022/05/17 09:03:38;;;;;;;;;3.75;3.50;;;;;23.91;37.07;101167.34;5073875;27;46077;-66
2022/05/17 09:06:28;;;;;;;;;4.00;3.00;;;;;23.95;36.47;101165.25;5073798;28;45483;-66
2022/05/17 09:08:59;;;;;;;;;2.50;2.50;;;;;23.97;35.88;101163.28;5080876;27;45600;-66
2022/05/17 09:11:46;;;;;;;;;2.00;2.00;;;;;23.98;35.30;101165.84;5082845;27;45567;-66
2022/05/17 09:14:16;;;;;;;;;4.00;4.00;;;;;24.03;34.60;101169.00;5089273;27;46129;-66
2022/05/17 09:16:45;;;;;;;;;2.00;2.00;;;;;24.08;33.42;101170.47;5075029;27;45591;-65
2022/05/17 09:19:11;;;;;;;;;3.75;2.75;;;;;24.13;35.06;101160.19;5072432;27;45488;-65
2022/05/17 09:21:41;;;;;;;;;3.50;3.50;;;;;24.14;34.65;101168.09;5072750;28;45577;-66
2022/05/17 09:24:12;;;;;;;;;3.00;3.00;;;;;24.13;34.24;101157.50;5073787;27;46154;-66
2022/05/17 09:26:39;;;;;;;;;6.50;5.00;;;;;24.06;33.87;101148.22;5080627;27;45567;-67
2022/05/17 09:29:18;;;;;;;;;4.00;4.00;;;;;24.15;34.09;101153.69;5084361;27;45527;-67
2022/05/17 09:31:58;;;;;;;;;3.75;3.75;;;;;24.16;34.92;101152.72;5091761;27;45493;-67
2022/05/17 09:34:32;;;;;;;;;6.25;5.75;;;;;24.19;34.87;101151.59;5073877;27;45781;-68
2022/05/17 09:37:04;;;;;;;;;1.00;1.00;;;;;24.17;35.20;101143.66;5073806;27;45552;-67
2022/05/17 09:39:30;;;;;;;;;3.00;3.00;;;;;24.21;35.07;101149.63;5073716;27;45494;-64
2022/05/17 09:42:01;;;;;;;;;5.00;4.25;;;;;24.23;34.65;101148.53;5075287;27;45679;-66
2022/05/17 09:44:30;;;;;;;;;3.25;3.00;;;;;24.25;35.65;101143.84;5073627;28;45751;-68
2022/05/17 09:46:59;;;;;;;;;3.75;3.50;;;;;24.25;35.63;101145.69;5090923;27;45535;-67
2022/05/17 09:52:35;;;;;;;;;2.50;2.00;;;;;24.29;34.74;101139.09;5084659;27;45477;-67
2022/05/17 09:55:21;;;;;;;;;3.50;2.75;;;;;24.36;32.84;101148.31;5088170;27;45560;-66
2022/05/17 09:57:59;;;;;;;;;2.00;2.00;;;;;24.42;31.86;101141.56;5061166;27;45497;-67
2022/05/17 10:00:41;;;;;;;;;2.00;2.00;;;;;24.49;34.11;101145.47;5091997;27;45737;-67
2022/05/17 10:03:06;;;;;;;;;3.25;2.00;;;;;24.55;33.26;101139.56;5089216;27;45602;-67
2022/05/17 10:05:38;;;;;;;;;46.67;39.67;;;;;24.57;33.71;101148.38;5086345;27;46340;-67
2022/05/17 10:08:25;;;;;;;;;3.00;3.00;;;;;24.59;32.46;101141.03;5079338;27;45552;-66
2022/05/17 10:11:05;;;;;;;;;2.50;2.50;;;;;24.63;31.69;101141.59;5080945;27;45479;-66
2022/05/17 10:13:35;;;;;;;;;3.50;2.50;;;;;24.69;32.06;101130.34;5076839;27;45453;-65
2022/05/17 10:16:09;;;;;;;;;4.75;3.00;;;;;24.72;32.20;101129.19;5086044;27;45784;-64
2022/05/17 10:18:54;;;;;;;;;4.00;4.00;;;;;24.75;31.59;101132.47;5084537;27;45467;-64
2022/05/17 10:21:38;;;;;;;;;3.50;2.25;;;;;24.79;31.09;101125.84;5076642;27;45552;-66
2022/05/17 10:24:41;;;;;;;;;20.33;19.00;;;;;24.86;31.26;101132.41;5083582;27;45609;-65
2022/05/17 10:27:42;;;;;;;;;11.00;10.25;;;;;24.91;32.46;101124.78;5071496;27;46619;-64
2022/05/17 10:30:12;;;;;;;;;3.25;3.25;;;;;24.91;32.37;101124.78;5081463;27;45451;-67
2022/05/17 10:33:00;;;;;;;;;4.00;3.75;;;;;24.95;32.87;101119.13;5087007;27;45681;-66
2022/05/17 10:35:33;;;;;;;;;6.75;5.00;;;;;24.96;32.96;101112.75;5070767;27;45455;-65
2022/05/17 10:38:27;;;;;;;;;2.75;2.75;;;;;24.97;31.96;101103.69;5085296;27;46132;-66
2022/05/17 10:40:55;;;;;;;;;3.25;3.25;;;;;25.00;32.42;101103.44;5085406;27;45497;-66
2022/05/17 10:43:25;;;;;;;;;5.75;5.75;;;;;24.97;32.88;101091.09;5089072;27;45611;-66
2022/05/17 10:46:09;;;;;;;;;5.75;5.75;;;;;25.06;33.17;101102.88;5086816;27;45535;-64
2022/05/17 10:49:02;;;;;;;;;15.50;15.50;;;;;25.07;32.85;101099.22;5087147;27;46081;-62
2022/05/17 10:51:51;;;;;;;;;4.75;4.75;;;;;25.07;33.37;101086.59;5089159;27;45489;-64
2022/05/17 10:54:41;;;;;;;;;3.50;3.50;;;;;25.05;33.30;101075.13;5098083;27;45656;-63
2022/05/17 10:57:19;;;;;;;;;3.75;3.75;;;;;25.14;33.66;101086.91;5082604;27;45564;-66
2022/05/17 11:00:14;;;;;;;;;19.00;19.00;;;;;25.13;33.35;101077.97;5085141;27;45504;-64
2022/05/17 11:03:10;;;;;;;;;31.00;30.67;;;;;25.20;33.43;101088.22;5084971;27;45473;-67
2022/05/17 11:06:03;;;;;;;;;4.50;4.00;;;;;25.23;33.97;101096.88;5088100;27;45746;-65
2022/05/17 11:08:36;;;;;;;;;9.75;9.75;;;;;25.28;34.20;101091.06;5087258;27;45629;-65
2022/05/17 11:11:21;;;;;;;;;6.00;6.00;;;;;25.32;33.67;101084.44;5087739;27;45520;-71
2022/05/17 11:13:56;;;;;;;;;5.75;4.75;;;;;25.33;34.02;101076.22;5092202;27;45489;-64
2022/05/17 11:16:40;;;;;;;;;4.00;4.00;;;;;25.38;34.07;101069.56;5093839;27;45574;-68
2022/05/17 11:19:23;;;;;;;;;4.50;4.50;;;;;25.39;34.31;101074.81;5083287;27;45643;-66
2022/05/17 11:21:55;;;;;;;;;5.25;5.00;;;;;25.38;34.61;101069.56;5086278;27;45591;-67
2022/05/17 11:24:31;;;;;;;;;7.75;5.00;;;;;25.38;34.64;101072.25;5087652;27;45623;-67
2022/05/17 11:27:27;;;;;;;;;2.50;2.50;;;;;25.45;34.35;101058.09;5084046;27;45618;-67
2022/05/17 11:30:05;;;;;;;;;4.00;4.00;;;;;25.49;34.81;101054.13;5093680;27;45462;-67
2022/05/17 11:32:36;;;;;;;;;5.75;5.50;;;;;25.52;35.11;101056.56;5087567;27;45538;-64
2022/05/17 11:35:31;;;;;;;;;78.50;73.50;;;;;25.59;34.66;101045.22;5089516;27;45532;-63
2022/05/17 11:37:56;;;;;;;;;6.75;5.75;;;;;25.67;35.00;101048.06;5072296;27;45497;-67
2022/05/17 11:40:50;;;;;;;;;6.00;6.00;;;;;25.78;35.15;101050.59;5084003;27;45737;-66
2022/05/17 11:43:42;;;;;;;;;6.75;5.25;;;;;25.86;35.02;101040.00;5089688;27;45600;-66
2022/05/17 11:46:33;;;;;;;;;4.50;4.00;;;;;25.95;35.00;101039.16;5078413;27;45647;-66